createdAt,value
2024-04-16T00:00:27.134Z,2.40
2024-04-16T00:03:16.089Z,2.30
2024-04-16T00:05:44.263Z,2.80
2024-04-16T00:08:12.586Z,2.30
2024-04-16T00:10:40.825Z,2.50
2024-04-16T00:13:08.878Z,2.40
2024-04-16T00:15:52.463Z,2.70
2024-04-16T00:18:20.728Z,2.60
2024-04-16T00:20:49.995Z,2.60
2024-04-16T00:23:17.888Z,2.90
2024-04-16T00:25:45.854Z,2.80
2024-04-16T00:28:13.743Z,3.00
2024-04-16T00:30:41.683Z,2.40
2024-04-16T00:33:09.749Z,2.60
2024-04-16T00:35:37.985Z,2.80
2024-04-16T00:38:06.003Z,2.60
2024-04-16T00:40:33.886Z,2.50
2024-04-16T00:43:02.233Z,3.00
2024-04-16T00:45:30.317Z,2.70
2024-04-16T00:47:58.697Z,3.00
2024-04-16T00:50:26.831Z,2.80
2024-04-16T00:52:54.792Z,2.90
2024-04-16T00:55:23.088Z,2.80
2024-04-16T00:57:51.377Z,2.90
2024-04-16T01:00:19.285Z,3.00
2024-04-16T01:02:47.242Z,3.20
2024-04-16T01:05:15.348Z,3.40
2024-04-16T01:07:43.370Z,3.20
2024-04-16T01:10:11.453Z,3.20
2024-04-16T01:12:43.185Z,3.00
2024-04-16T01:15:11.626Z,3.40
2024-04-16T01:17:42.616Z,3.50
2024-04-16T01:20:11.000Z,3.50
2024-04-16T01:22:38.959Z,3.30
2024-04-16T01:25:06.984Z,3.60
2024-04-16T01:27:34.849Z,3.70
2024-04-16T01:30:02.608Z,3.50
2024-04-16T01:32:30.577Z,3.80
2024-04-16T01:34:58.440Z,3.20
2024-04-16T01:37:26.359Z,3.40
2024-04-16T01:39:54.353Z,3.30
2024-04-16T01:42:22.356Z,3.20
2024-04-16T01:44:52.162Z,3.50
2024-04-16T01:47:20.079Z,3.40
2024-04-16T01:49:47.960Z,3.30
2024-04-16T01:52:15.853Z,3.00
2024-04-16T01:54:43.692Z,3.30
2024-04-16T01:57:11.724Z,3.20
2024-04-16T01:59:39.656Z,3.50
2024-04-16T02:02:09.142Z,3.40
2024-04-16T02:04:37.093Z,3.80
2024-04-16T02:07:05.480Z,4.10
2024-04-16T02:09:36.054Z,3.80
2024-04-16T02:12:04.488Z,4.20
2024-04-16T02:14:32.458Z,4.00
2024-04-16T02:17:00.405Z,3.30
2024-04-16T02:19:28.724Z,3.60
2024-04-16T02:21:58.382Z,3.50
2024-04-16T02:24:27.786Z,3.30
2024-04-16T02:26:55.769Z,3.40
2024-04-16T02:29:23.865Z,4.10
2024-04-16T02:31:51.706Z,3.90
2024-04-16T02:34:20.253Z,3.90
2024-04-16T02:36:48.083Z,3.70
2024-04-16T02:39:17.488Z,3.80
2024-04-16T02:41:45.532Z,4.00
2024-04-16T02:44:13.345Z,3.60
2024-04-16T02:46:41.248Z,3.40
2024-04-16T02:49:09.175Z,3.60
2024-04-16T02:51:37.094Z,3.80
2024-04-16T02:54:04.986Z,3.70
2024-04-16T02:56:33.029Z,4.00
2024-04-16T02:59:00.978Z,3.30
2024-04-16T03:01:29.038Z,3.30
2024-04-16T03:03:57.302Z,3.50
2024-04-16T03:06:25.500Z,3.60
2024-04-16T03:08:53.491Z,3.70
2024-04-16T03:11:21.501Z,3.30
2024-04-16T03:13:49.537Z,3.60
2024-04-16T03:16:17.459Z,3.50
2024-04-16T03:18:46.184Z,3.80
2024-04-16T03:21:14.532Z,4.70
2024-04-16T03:23:42.241Z,3.30
2024-04-16T03:26:10.551Z,3.70
2024-04-16T03:28:38.894Z,3.40
2024-04-16T03:31:06.736Z,3.60
2024-04-16T03:33:34.655Z,3.80
2024-04-16T03:36:02.442Z,4.10
2024-04-16T03:38:30.523Z,4.00
2024-04-16T03:41:00.038Z,3.20
2024-04-16T03:43:29.265Z,3.90
2024-04-16T03:45:58.167Z,3.80
2024-04-16T03:48:26.565Z,3.70
2024-04-16T03:50:54.538Z,4.80
2024-04-16T03:53:22.783Z,5.00
2024-04-16T03:55:50.703Z,4.30
2024-04-16T03:58:18.802Z,4.70
2024-04-16T04:01:04.503Z,4.40
2024-04-16T04:03:33.173Z,3.50
2024-04-16T04:06:01.513Z,4.00
2024-04-16T04:08:29.700Z,4.40
2024-04-16T04:10:57.877Z,3.90
2024-04-16T04:13:25.889Z,3.60
2024-04-16T04:15:54.026Z,4.20
2024-04-16T04:18:21.919Z,3.90
2024-04-16T04:20:50.591Z,3.40
2024-04-16T04:23:18.557Z,4.30
2024-04-16T04:25:46.895Z,4.40
2024-04-16T04:28:15.058Z,3.60
2024-04-16T04:30:43.616Z,3.80
2024-04-16T04:33:12.250Z,4.50
2024-04-16T04:35:40.678Z,4.70
2024-04-16T04:38:08.778Z,3.30
2024-04-16T04:40:38.602Z,3.50
2024-04-16T04:43:06.990Z,3.10
2024-04-16T04:45:34.957Z,3.60
2024-04-16T04:48:03.623Z,3.10
2024-04-16T04:50:32.085Z,3.40
2024-04-16T04:53:01.838Z,3.30
2024-04-16T04:55:29.785Z,3.00
2024-04-16T04:57:58.202Z,3.00
2024-04-16T05:00:26.023Z,2.90
2024-04-16T05:02:54.078Z,3.40
2024-04-16T05:05:23.114Z,3.30
2024-04-16T05:07:51.164Z,4.40
2024-04-16T05:10:19.211Z,3.40
2024-04-16T05:12:47.707Z,3.00
2024-04-16T05:15:15.592Z,3.20
2024-04-16T05:17:44.387Z,2.90
2024-04-16T05:20:12.520Z,2.60
2024-04-16T05:22:40.659Z,2.70
2024-04-16T05:25:08.597Z,2.80
2024-04-16T05:27:36.712Z,2.50
2024-04-16T05:30:05.816Z,2.70
2024-04-16T05:32:33.751Z,2.70
2024-04-16T05:35:01.771Z,2.70
2024-04-16T05:37:29.889Z,2.60
2024-04-16T05:39:59.415Z,2.40
2024-04-16T05:42:27.237Z,3.30
2024-04-16T05:44:55.035Z,2.70
2024-04-16T05:47:22.916Z,2.50
2024-04-16T05:49:50.854Z,2.80
2024-04-16T05:52:19.752Z,3.30
2024-04-16T05:54:47.778Z,3.30
2024-04-16T05:57:15.603Z,2.70
2024-04-16T05:59:43.493Z,3.20
2024-04-16T06:02:11.544Z,2.90
2024-04-16T06:04:39.422Z,3.00
2024-04-16T06:07:07.195Z,2.90
2024-04-16T06:09:35.110Z,2.70
2024-04-16T06:12:03.262Z,2.60
2024-04-16T06:14:31.204Z,2.80
2024-04-16T06:16:59.424Z,2.10
2024-04-16T06:19:27.367Z,2.70
2024-04-16T06:21:55.326Z,2.20
2024-04-16T06:24:23.226Z,2.50
2024-04-16T06:26:51.035Z,2.30
2024-04-16T06:29:19.065Z,2.40
2024-04-16T06:31:47.037Z,2.60
2024-04-16T06:34:15.142Z,2.30
2024-04-16T06:36:44.440Z,2.30
2024-04-16T06:39:12.800Z,2.70
2024-04-16T06:41:41.259Z,2.10
2024-04-16T06:44:09.070Z,2.10
2024-04-16T06:46:37.063Z,2.20
2024-04-16T06:49:13.222Z,2.00
2024-04-16T06:54:14.333Z,2.50
2024-04-16T06:56:42.205Z,2.30
2024-04-16T06:59:11.354Z,2.90
2024-04-16T07:01:39.163Z,2.20
2024-04-16T07:04:07.602Z,2.30
2024-04-16T07:06:35.549Z,1.90
2024-04-16T07:09:06.201Z,2.10
2024-04-16T07:11:36.814Z,2.70
2024-04-16T07:14:04.707Z,2.00
2024-04-16T07:16:33.421Z,2.10
2024-04-16T07:19:01.267Z,2.00
2024-04-16T07:21:30.045Z,1.80
2024-04-16T07:23:58.292Z,2.20
2024-04-16T07:26:26.206Z,1.80
2024-04-16T07:28:54.602Z,2.00
2024-04-16T07:31:31.814Z,2.50
2024-04-16T07:34:06.643Z,1.80
2024-04-16T07:36:35.436Z,2.50
2024-04-16T07:39:04.201Z,2.20
2024-04-16T07:41:32.418Z,2.90
2024-04-16T07:44:00.405Z,2.00
2024-04-16T07:46:28.467Z,2.20
2024-04-16T07:48:58.511Z,2.00
2024-04-16T07:51:27.251Z,1.80
2024-04-16T07:53:55.201Z,2.00
2024-04-16T07:56:23.055Z,1.20
2024-04-16T07:58:51.129Z,1.80
2024-04-16T08:01:19.161Z,1.60
2024-04-16T08:03:47.163Z,1.70
2024-04-16T08:06:15.044Z,1.40
2024-04-16T08:08:42.828Z,1.50
2024-04-16T08:11:11.471Z,2.20
2024-04-16T08:13:41.385Z,1.90
2024-04-16T08:16:09.786Z,2.10
2024-04-16T08:18:37.886Z,1.90
2024-04-16T08:21:05.930Z,2.00
2024-04-16T08:23:34.555Z,1.90
2024-04-16T08:26:07.952Z,1.80
2024-04-16T08:28:38.069Z,1.90
2024-04-16T08:31:06.224Z,1.60
2024-04-16T08:33:34.436Z,1.80
2024-04-16T08:36:02.547Z,1.90
2024-04-16T08:38:30.701Z,2.10
2024-04-16T08:41:03.659Z,1.80
2024-04-16T08:43:35.390Z,1.70
2024-04-16T08:46:03.978Z,1.80
2024-04-16T08:48:32.979Z,1.90
2024-04-16T08:51:01.848Z,1.70
2024-04-16T08:53:33.521Z,2.30
2024-04-16T08:56:02.613Z,2.40
2024-04-16T08:58:30.623Z,1.70
2024-04-16T09:00:59.889Z,2.00
2024-04-16T09:03:29.227Z,2.00
2024-04-16T09:05:57.638Z,1.90
2024-04-16T09:08:25.991Z,2.20
2024-04-16T09:10:54.010Z,1.70
2024-04-16T09:13:23.216Z,1.90
2024-04-16T09:15:51.003Z,2.30
2024-04-16T09:18:25.094Z,2.20
2024-04-16T09:20:56.098Z,2.40
2024-04-16T09:23:24.857Z,2.60
2024-04-16T09:25:52.762Z,2.10
2024-04-16T09:28:20.749Z,2.20
2024-04-16T09:30:56.550Z,2.70
2024-04-16T09:33:33.542Z,2.10
2024-04-16T09:36:13.967Z,2.40
2024-04-16T09:38:46.234Z,2.30
2024-04-16T09:41:15.478Z,2.30
2024-04-16T09:43:43.743Z,2.10
2024-04-16T09:46:13.098Z,1.60
2024-04-16T09:48:43.242Z,1.80
2024-04-16T09:51:15.038Z,1.40
2024-04-16T09:53:45.296Z,1.50
2024-04-16T09:56:15.697Z,1.80
2024-04-16T10:01:21.721Z,1.20
2024-04-16T10:03:54.317Z,2.00
2024-04-16T10:06:22.760Z,1.30
2024-04-16T10:08:51.359Z,1.50
2024-04-16T10:11:25.285Z,1.10
2024-04-16T10:13:59.598Z,1.40
2024-04-16T10:16:27.739Z,1.30
2024-04-16T10:18:57.081Z,1.40
2024-04-16T10:21:27.998Z,1.70
2024-04-16T10:24:04.392Z,1.00
2024-04-16T10:26:34.732Z,1.30
2024-04-16T10:31:39.269Z,1.30
2024-04-16T10:34:08.165Z,1.30
2024-04-16T10:36:36.626Z,0.90
2024-04-16T10:39:12.069Z,1.00
2024-04-16T10:41:50.838Z,0.80
2024-04-16T10:44:19.470Z,0.90
2024-04-16T10:46:49.001Z,1.40
2024-04-16T10:49:19.136Z,1.10
2024-04-16T10:51:47.136Z,0.80
2024-04-16T10:54:15.366Z,0.90
2024-04-16T10:56:43.583Z,0.70
2024-04-16T10:59:14.137Z,0.80
2024-04-16T11:01:47.721Z,0.60
2024-04-16T11:04:19.010Z,0.70
2024-04-16T11:06:48.314Z,0.60
2024-04-16T11:09:17.286Z,0.50
2024-04-16T11:11:45.795Z,0.50
2024-04-16T11:14:14.430Z,0.70
2024-04-16T11:16:42.863Z,0.60
2024-04-16T11:19:11.792Z,0.70
2024-04-16T11:21:41.628Z,0.70
2024-04-16T11:24:10.850Z,0.80
2024-04-16T11:26:39.062Z,0.70
2024-04-16T11:29:07.699Z,0.70
2024-04-16T11:31:35.602Z,0.90
2024-04-16T11:34:05.205Z,0.90
2024-04-16T11:36:33.171Z,0.90
2024-04-16T11:39:01.097Z,0.70
2024-04-16T11:41:30.478Z,0.90
2024-04-16T11:43:58.494Z,0.70
2024-04-16T11:46:26.966Z,1.00
2024-04-16T11:48:55.644Z,0.60
2024-04-16T11:51:23.521Z,0.80
2024-04-16T11:53:51.627Z,0.60
2024-04-16T11:56:20.065Z,1.00
2024-04-16T11:58:48.134Z,0.90
2024-04-16T12:01:16.611Z,0.90
2024-04-16T12:03:45.248Z,1.00
2024-04-16T12:06:13.519Z,1.00
2024-04-16T12:08:41.321Z,0.70
2024-04-16T12:11:10.290Z,0.60
2024-04-16T12:13:38.254Z,0.50
2024-04-16T12:16:06.820Z,0.70
2024-04-16T12:18:34.692Z,0.50
2024-04-16T12:21:02.628Z,0.60
2024-04-16T12:23:32.809Z,0.40
2024-04-16T12:26:00.938Z,0.90
2024-04-16T12:28:28.902Z,0.60
2024-04-16T12:30:57.926Z,0.60
2024-04-16T12:33:25.837Z,0.70
2024-04-16T12:35:53.737Z,0.50
2024-04-16T12:38:22.009Z,0.90
2024-04-16T12:40:50.044Z,0.90
2024-04-16T12:43:19.503Z,0.60
2024-04-16T12:45:49.410Z,0.90
2024-04-16T12:48:23.908Z,1.10
2024-04-16T12:50:51.796Z,1.10
2024-04-16T12:53:19.986Z,0.80
2024-04-16T12:55:48.131Z,1.30
2024-04-16T12:58:16.192Z,1.60
2024-04-16T13:00:45.154Z,1.40
2024-04-16T13:03:13.406Z,1.10
2024-04-16T13:05:41.417Z,1.10
2024-04-16T13:08:09.763Z,1.00
2024-04-16T13:10:37.687Z,0.90
2024-04-16T13:13:05.890Z,0.70
2024-04-16T13:15:34.196Z,1.20
2024-04-16T13:18:02.976Z,0.90
2024-04-16T13:20:30.813Z,0.70
2024-04-16T13:22:58.473Z,0.80
2024-04-16T13:25:26.361Z,0.70
2024-04-16T13:27:54.158Z,0.90
2024-04-16T13:30:22.149Z,0.90
2024-04-16T13:32:56.902Z,0.80
2024-04-16T13:35:26.220Z,0.80
2024-04-16T13:37:54.251Z,0.90
2024-04-16T13:40:23.773Z,0.90
2024-04-16T13:42:52.726Z,0.70
2024-04-16T13:45:20.677Z,1.00
2024-04-16T13:47:48.774Z,1.10
2024-04-16T13:50:17.104Z,0.60
2024-04-16T13:52:48.576Z,0.80
2024-04-16T13:55:17.756Z,0.90
2024-04-16T13:57:46.344Z,0.80
2024-04-16T14:00:14.891Z,0.90
2024-04-16T14:02:42.846Z,1.00
2024-04-16T14:05:10.977Z,1.50
2024-04-16T14:07:38.824Z,1.40
2024-04-16T14:10:07.361Z,0.90
2024-04-16T14:12:35.280Z,1.20
2024-04-16T14:15:03.497Z,1.30
2024-04-16T14:17:31.429Z,1.10
2024-04-16T14:19:59.491Z,1.30
2024-04-16T14:22:27.374Z,0.60
2024-04-16T14:24:55.324Z,0.90
2024-04-16T14:27:25.238Z,0.80
2024-04-16T14:29:53.645Z,1.30
2024-04-16T14:32:21.865Z,1.10
2024-04-16T14:34:49.757Z,1.30
2024-04-16T14:37:17.973Z,1.30
2024-04-16T14:39:45.832Z,1.10
2024-04-16T14:42:13.722Z,1.00
2024-04-16T14:44:41.692Z,1.00
2024-04-16T14:47:10.060Z,1.40
2024-04-16T14:49:38.112Z,1.00
2024-04-16T14:52:09.415Z,1.50
2024-04-16T14:54:38.125Z,1.30
2024-04-16T14:57:06.244Z,1.30
2024-04-16T14:59:34.164Z,1.60
2024-04-16T15:02:02.571Z,1.10
2024-04-16T15:04:30.766Z,1.40
2024-04-16T15:07:00.459Z,1.10
2024-04-16T15:09:28.375Z,1.90
2024-04-16T15:11:56.454Z,1.10
2024-04-16T15:14:24.750Z,1.50
2024-04-16T15:16:54.432Z,1.40
2024-04-16T15:19:22.527Z,1.30
2024-04-16T15:21:50.800Z,1.70
2024-04-16T15:24:19.361Z,2.00
2024-04-16T15:26:47.215Z,1.40
2024-04-16T15:29:15.049Z,1.40
2024-04-16T15:31:43.061Z,1.20
2024-04-16T15:34:11.033Z,1.80
2024-04-16T15:36:38.905Z,2.00
2024-04-16T15:39:07.392Z,1.50
2024-04-16T15:41:35.255Z,1.80
2024-04-16T15:44:03.151Z,1.70
2024-04-16T15:46:31.032Z,1.30
2024-04-16T15:49:00.171Z,1.40
2024-04-16T15:51:28.237Z,1.40
2024-04-16T15:53:56.857Z,1.30
2024-04-16T15:56:24.684Z,1.10
2024-04-16T15:58:52.665Z,1.60
2024-04-16T16:01:23.243Z,2.20
2024-04-16T16:03:52.605Z,2.00
2024-04-16T16:06:20.417Z,2.40
2024-04-16T16:08:48.471Z,2.50
2024-04-16T16:11:16.786Z,2.00
2024-04-16T16:13:44.842Z,2.10
2024-04-16T16:16:12.959Z,2.40
2024-04-16T16:18:41.123Z,2.10
2024-04-16T16:21:09.945Z,2.20
2024-04-16T16:23:37.993Z,2.10
2024-04-16T16:26:09.025Z,2.00
2024-04-16T16:28:37.536Z,2.00
2024-04-16T16:31:05.946Z,2.00
2024-04-16T16:33:34.011Z,2.10
2024-04-16T16:36:01.960Z,1.90
2024-04-16T16:38:31.855Z,1.80
2024-04-16T16:40:59.637Z,1.70
2024-04-16T16:43:27.574Z,2.00
2024-04-16T16:45:55.360Z,2.10
2024-04-16T16:48:23.590Z,1.90
2024-04-16T16:50:53.199Z,3.00
2024-04-16T16:53:21.074Z,2.50
2024-04-16T16:55:51.706Z,1.70
2024-04-16T16:58:20.859Z,2.00
2024-04-16T17:00:50.638Z,1.80
2024-04-16T17:03:18.848Z,2.30
2024-04-16T17:05:47.195Z,1.80
2024-04-16T17:08:15.242Z,2.30
2024-04-16T17:10:43.089Z,2.00
2024-04-16T17:13:10.948Z,3.00
2024-04-16T17:15:39.917Z,2.60
2024-04-16T17:18:08.246Z,2.00
2024-04-16T17:20:36.284Z,2.80
2024-04-16T17:23:05.043Z,1.90
2024-04-16T17:25:32.796Z,1.70
2024-04-16T17:28:00.926Z,2.40
2024-04-16T17:30:28.875Z,2.40
2024-04-16T17:32:57.227Z,2.30
2024-04-16T17:35:25.145Z,2.60
2024-04-16T17:37:53.088Z,2.90
2024-04-16T17:40:22.743Z,3.10
2024-04-16T17:42:51.042Z,2.40
2024-04-16T17:45:19.003Z,2.40
2024-04-16T17:47:47.322Z,2.20
2024-04-16T17:50:17.180Z,2.20
2024-04-16T17:52:45.083Z,2.40
2024-04-16T17:55:13.298Z,2.20
2024-04-16T17:57:44.379Z,2.00
2024-04-16T18:00:15.335Z,2.40
